createdAt,value
2023-04-15T00:01:00.069Z,12.40
2023-04-15T00:03:29.368Z,12.50
2023-04-15T00:05:58.910Z,12.50
2023-04-15T00:08:26.920Z,12.50
2023-04-15T00:10:55.436Z,12.50
2023-04-15T00:13:23.203Z,12.50
2023-04-15T00:15:51.280Z,12.60
2023-04-15T00:18:19.470Z,12.60
2023-04-15T00:20:47.561Z,12.60
2023-04-15T00:23:15.452Z,12.70
2023-04-15T00:25:43.835Z,12.70
2023-04-15T00:28:11.532Z,12.70
2023-04-15T00:30:39.816Z,12.70
2023-04-15T00:33:08.434Z,12.70
2023-04-15T00:35:37.885Z,12.70
2023-04-15T00:38:08.827Z,12.70
2023-04-15T00:40:36.808Z,12.60
2023-04-15T00:43:05.958Z,12.60
2023-04-15T00:45:34.059Z,12.50
2023-04-15T00:48:02.117Z,12.40
2023-04-15T00:50:30.120Z,12.30
2023-04-15T00:52:58.045Z,12.20
2023-04-15T00:55:27.286Z,12.10
2023-04-15T00:57:56.495Z,12.10
2023-04-15T01:00:25.253Z,12.10
2023-04-15T01:02:53.725Z,12.10
2023-04-15T01:05:22.054Z,12.10
2023-04-15T01:07:49.956Z,12.20
2023-04-15T01:10:18.179Z,12.10
2023-04-15T01:12:46.297Z,12.10
2023-04-15T01:15:14.434Z,12.10
2023-04-15T01:17:42.332Z,12.00
2023-04-15T01:20:11.216Z,12.00
2023-04-15T01:22:39.828Z,11.90
2023-04-15T01:25:16.166Z,11.90
2023-04-15T01:27:44.714Z,11.90
2023-04-15T01:30:12.945Z,11.80
2023-04-15T01:32:40.986Z,11.80
2023-04-15T01:35:09.325Z,11.80
2023-04-15T01:37:38.087Z,11.80
2023-04-15T01:40:06.521Z,11.90
2023-04-15T01:42:35.697Z,11.90
2023-04-15T01:45:04.387Z,12.00
2023-04-15T01:47:32.620Z,11.90
2023-04-15T01:50:00.471Z,12.00
2023-04-15T01:52:29.962Z,12.00
2023-04-15T01:54:58.116Z,11.90
2023-04-15T01:57:27.032Z,11.90
2023-04-15T01:59:55.124Z,11.90
2023-04-15T02:02:23.351Z,11.90
2023-04-15T02:04:51.206Z,11.90
2023-04-15T02:07:20.110Z,11.90
2023-04-15T02:09:48.023Z,12.00
2023-04-15T02:12:15.952Z,12.00
2023-04-15T02:14:43.718Z,12.00
2023-04-15T02:17:12.119Z,12.00
2023-04-15T02:19:40.928Z,12.00
2023-04-15T02:22:09.918Z,12.00
2023-04-15T02:24:38.085Z,12.00
2023-04-15T02:27:06.490Z,12.00
2023-04-15T02:29:34.281Z,12.10
2023-04-15T02:32:02.529Z,12.10
2023-04-15T02:34:30.817Z,12.10
2023-04-15T02:36:59.566Z,12.10
2023-04-15T02:39:27.635Z,12.10
2023-04-15T02:41:55.951Z,12.10
2023-04-15T02:44:25.461Z,12.10
2023-04-15T02:46:59.130Z,12.00
2023-04-15T02:49:30.321Z,12.00
2023-04-15T02:51:58.769Z,12.00
2023-04-15T02:54:29.159Z,12.00
2023-04-15T02:56:58.252Z,11.90
2023-04-15T02:59:26.357Z,12.00
2023-04-15T03:01:55.948Z,11.90
2023-04-15T03:04:23.922Z,11.90
2023-04-15T03:06:52.205Z,11.80
2023-04-15T03:09:20.158Z,11.80
2023-04-15T03:11:48.538Z,11.80
2023-04-15T03:14:17.328Z,11.70
2023-04-15T03:16:47.882Z,11.70
2023-04-15T03:19:18.183Z,11.70
2023-04-15T03:21:46.191Z,11.70
2023-04-15T03:24:14.781Z,11.70
2023-04-15T03:26:42.840Z,11.70
2023-04-15T03:29:13.766Z,11.70
2023-04-15T03:31:42.910Z,11.70
2023-04-15T03:34:10.647Z,11.60
2023-04-15T03:36:38.820Z,11.60
2023-04-15T03:39:06.813Z,11.60
2023-04-15T03:41:34.843Z,11.50
2023-04-15T03:44:02.660Z,11.50
2023-04-15T03:46:31.169Z,11.50
2023-04-15T03:48:59.312Z,11.50
2023-04-15T03:51:27.405Z,11.50
2023-04-15T03:53:55.311Z,11.50
2023-04-15T03:56:23.404Z,11.50
2023-04-15T03:58:52.485Z,11.50
2023-04-15T04:01:21.150Z,11.50
2023-04-15T04:03:49.148Z,11.60
2023-04-15T04:06:17.495Z,11.60
2023-04-15T04:08:45.376Z,11.60
2023-04-15T04:11:13.491Z,11.60
2023-04-15T04:13:42.118Z,11.60
2023-04-15T04:16:10.326Z,11.50
2023-04-15T04:18:38.239Z,11.50
2023-04-15T04:21:09.028Z,11.40
2023-04-15T04:23:37.500Z,11.40
2023-04-15T04:26:05.449Z,11.40
2023-04-15T04:28:33.737Z,11.50
2023-04-15T04:31:01.786Z,11.50
2023-04-15T04:33:30.052Z,11.50
2023-04-15T04:35:57.849Z,11.50
2023-04-15T04:38:26.337Z,11.50
2023-04-15T04:40:54.389Z,11.50
2023-04-15T04:43:22.496Z,11.50
2023-04-15T04:45:50.475Z,11.50
2023-04-15T04:48:19.032Z,11.50
2023-04-15T04:50:47.409Z,11.50
2023-04-15T04:53:15.898Z,11.50
2023-04-15T04:55:43.629Z,11.50
2023-04-15T04:58:12.381Z,11.50
2023-04-15T05:00:42.416Z,11.60
2023-04-15T05:03:10.867Z,11.60
2023-04-15T05:05:41.558Z,11.70
2023-04-15T05:08:09.598Z,11.80
2023-04-15T05:10:37.342Z,11.90
2023-04-15T05:13:05.474Z,12.00
2023-04-15T05:15:33.761Z,12.20
2023-04-15T05:18:01.759Z,12.20
2023-04-15T05:20:29.999Z,12.30
2023-04-15T05:22:58.102Z,12.40
2023-04-15T05:25:26.400Z,12.50
2023-04-15T05:27:54.531Z,12.60
2023-04-15T05:30:22.646Z,12.60
2023-04-15T05:32:51.246Z,12.70
2023-04-15T05:35:19.568Z,12.80
2023-04-15T05:37:47.513Z,12.80
2023-04-15T05:40:16.076Z,12.80
2023-04-15T05:42:44.167Z,12.90
2023-04-15T05:45:12.595Z,13.00
2023-04-15T05:47:40.695Z,13.00
2023-04-15T05:50:08.824Z,13.10
2023-04-15T05:52:37.571Z,13.00
2023-04-15T05:55:05.833Z,13.20
2023-04-15T05:57:33.985Z,13.30
2023-04-15T06:00:01.969Z,13.30
2023-04-15T06:02:37.733Z,13.30
2023-04-15T06:05:10.306Z,13.40
2023-04-15T06:07:39.000Z,13.40
2023-04-15T06:10:07.724Z,13.40
2023-04-15T06:12:36.608Z,13.40
2023-04-15T06:15:04.681Z,13.30
2023-04-15T06:17:32.752Z,13.30
2023-04-15T06:20:00.711Z,13.40
2023-04-15T06:22:28.747Z,13.50
2023-04-15T06:24:56.920Z,13.60
2023-04-15T06:27:24.990Z,13.80
2023-04-15T06:29:53.024Z,13.90
2023-04-15T06:32:21.297Z,14.00
2023-04-15T06:34:49.246Z,14.10
2023-04-15T06:37:17.474Z,14.20
2023-04-15T06:39:45.407Z,14.30
2023-04-15T06:42:13.661Z,14.50
2023-04-15T06:44:41.852Z,14.80
2023-04-15T06:47:09.997Z,15.00
2023-04-15T06:49:37.982Z,15.00
2023-04-15T06:52:06.147Z,15.30
2023-04-15T06:54:33.848Z,15.40
2023-04-15T06:57:02.207Z,15.40
2023-04-15T06:59:30.615Z,15.50
2023-04-15T07:01:58.785Z,15.50
2023-04-15T07:04:26.776Z,15.40
2023-04-15T07:06:56.027Z,15.40
2023-04-15T07:09:25.119Z,15.50
2023-04-15T07:11:53.482Z,15.40
2023-04-15T07:14:21.303Z,15.40
2023-04-15T07:16:49.390Z,15.30
2023-04-15T07:19:18.020Z,15.40
2023-04-15T07:21:48.028Z,15.50
2023-04-15T07:24:20.540Z,15.60
2023-04-15T07:26:48.557Z,15.50
2023-04-15T07:29:16.431Z,15.50
2023-04-15T07:31:44.442Z,15.60
2023-04-15T07:34:12.392Z,15.80
2023-04-15T07:36:40.832Z,16.00
2023-04-15T07:39:08.880Z,15.90
2023-04-15T07:41:37.379Z,16.10
2023-04-15T07:44:05.744Z,16.20
2023-04-15T07:46:33.904Z,16.30
2023-04-15T07:49:02.043Z,16.40
2023-04-15T07:51:31.105Z,16.50
2023-04-15T07:53:59.452Z,16.70
2023-04-15T07:56:27.572Z,16.80
2023-04-15T07:58:55.568Z,17.00
2023-04-15T08:01:23.724Z,17.00
2023-04-15T08:03:51.937Z,17.20
2023-04-15T08:06:20.027Z,17.30
2023-04-15T08:08:48.140Z,17.40
2023-04-15T08:11:16.578Z,17.40
2023-04-15T08:13:44.598Z,17.40
2023-04-15T08:16:19.224Z,17.50
2023-04-15T08:18:48.800Z,17.50
2023-04-15T08:21:18.044Z,17.30
2023-04-15T08:23:51.429Z,17.10
2023-04-15T08:26:20.690Z,16.90
2023-04-15T08:28:51.824Z,16.80
2023-04-15T08:31:20.348Z,17.00
2023-04-15T08:33:48.633Z,17.30
2023-04-15T08:36:19.465Z,17.80
2023-04-15T08:38:51.162Z,18.20
2023-04-15T08:41:23.477Z,18.50
2023-04-15T08:43:58.760Z,18.60
2023-04-15T08:46:27.332Z,18.10
2023-04-15T08:48:58.079Z,18.20
2023-04-15T08:51:27.708Z,18.10
2023-04-15T08:53:55.942Z,18.10
2023-04-15T08:56:29.745Z,18.30
2023-04-15T08:58:58.694Z,17.90
2023-04-15T09:01:27.847Z,18.10
2023-04-15T09:03:58.356Z,18.10
2023-04-15T09:06:26.760Z,18.10
2023-04-15T09:08:54.598Z,18.00
2023-04-15T09:11:23.269Z,18.30
2023-04-15T09:13:51.955Z,18.60
2023-04-15T09:16:20.669Z,19.00
2023-04-15T09:18:48.904Z,19.50
2023-04-15T09:21:19.822Z,19.70
2023-04-15T09:24:00.496Z,20.20
2023-04-15T09:26:36.477Z,20.80
2023-04-15T09:29:15.152Z,20.60
2023-04-15T09:31:44.137Z,20.40
2023-04-15T09:34:12.977Z,20.20
2023-04-15T09:36:54.805Z,20.00
2023-04-15T09:39:23.206Z,20.00
2023-04-15T09:42:09.374Z,19.90
2023-04-15T09:44:38.045Z,20.10
2023-04-15T09:47:06.252Z,20.40
2023-04-15T09:49:34.601Z,20.50
2023-04-15T09:52:05.660Z,20.40
2023-04-15T09:54:38.953Z,20.30
2023-04-15T09:57:09.329Z,20.30
2023-04-15T09:59:37.931Z,20.00
2023-04-15T10:02:08.140Z,19.60
2023-04-15T10:04:40.523Z,19.70
2023-04-15T10:07:10.426Z,19.50
2023-04-15T10:09:39.939Z,19.30
2023-04-15T10:12:08.345Z,19.10
2023-04-15T10:14:39.010Z,18.90
2023-04-15T10:17:08.868Z,18.90
2023-04-15T10:19:38.492Z,18.70
2023-04-15T10:22:08.620Z,18.50
2023-04-15T10:24:37.859Z,18.50
2023-04-15T10:27:07.095Z,18.60
2023-04-15T10:29:35.822Z,18.60
2023-04-15T10:32:04.409Z,18.80
2023-04-15T10:34:33.555Z,18.80
2023-04-15T10:37:05.536Z,19.20
2023-04-15T10:39:42.510Z,19.30
2023-04-15T10:42:13.250Z,19.20
2023-04-15T10:44:49.925Z,19.50
2023-04-15T10:47:21.816Z,19.20
2023-04-15T10:49:52.827Z,19.20
2023-04-15T10:52:26.359Z,19.70
2023-04-15T10:55:19.274Z,19.50
2023-04-15T10:57:47.679Z,18.80
2023-04-15T11:00:17.860Z,18.20
2023-04-15T11:02:55.269Z,17.60
2023-04-15T11:05:40.284Z,17.40
2023-04-15T11:08:09.415Z,16.90
2023-04-15T11:10:37.232Z,16.80
2023-04-15T11:13:17.410Z,16.60
2023-04-15T11:15:47.462Z,16.60
2023-04-15T11:18:31.161Z,16.30
2023-04-15T11:21:04.513Z,16.10
2023-04-15T11:23:41.723Z,15.90
2023-04-15T11:26:12.572Z,15.70
2023-04-15T11:28:43.177Z,15.50
2023-04-15T11:31:16.979Z,15.50
2023-04-15T11:33:54.505Z,15.40
2023-04-15T11:36:27.649Z,15.00
2023-04-15T11:38:56.768Z,14.80
2023-04-15T11:41:24.789Z,14.60
2023-04-15T11:43:53.139Z,14.60
2023-04-15T11:46:23.302Z,14.70
2023-04-15T11:48:51.360Z,14.80
2023-04-15T11:51:21.173Z,14.80
2023-04-15T11:56:23.851Z,14.80
2023-04-15T11:59:02.746Z,14.80
2023-04-15T12:01:35.836Z,14.80
2023-04-15T12:04:11.530Z,14.70
2023-04-15T12:06:40.391Z,14.70
2023-04-15T12:09:10.781Z,15.00
2023-04-15T12:11:59.479Z,15.20
2023-04-15T12:14:29.353Z,15.60
2023-04-15T12:17:05.915Z,15.90
2023-04-15T12:19:42.616Z,16.00
2023-04-15T12:22:16.519Z,16.10
2023-04-15T12:24:48.600Z,16.00
2023-04-15T12:27:18.082Z,16.10
2023-04-15T12:29:46.195Z,16.00
2023-04-15T12:32:21.456Z,15.90
2023-04-15T12:34:54.806Z,15.70
2023-04-15T12:37:23.062Z,15.50
2023-04-15T12:39:51.284Z,15.00
2023-04-15T12:42:20.031Z,14.60
2023-04-15T12:44:47.968Z,14.20
2023-04-15T12:47:16.228Z,14.10
2023-04-15T12:49:44.055Z,14.00
2023-04-15T12:52:12.283Z,13.90
2023-04-15T12:54:40.366Z,14.00
2023-04-15T12:57:08.801Z,14.00
2023-04-15T12:59:37.871Z,14.20
2023-04-15T13:02:16.255Z,14.30
2023-04-15T13:04:44.767Z,14.50
2023-04-15T13:07:14.614Z,14.60
2023-04-15T13:09:43.176Z,14.70
2023-04-15T13:12:14.138Z,14.90
2023-04-15T13:14:42.425Z,15.10
2023-04-15T13:17:12.080Z,15.10
2023-04-15T13:19:40.443Z,15.20
2023-04-15T13:22:09.517Z,15.30
2023-04-15T13:24:37.816Z,15.20
2023-04-15T13:27:06.266Z,15.10
2023-04-15T13:29:34.191Z,15.00
2023-04-15T13:32:02.483Z,14.80
2023-04-15T13:34:31.050Z,14.80
2023-04-15T13:36:59.166Z,14.90
2023-04-15T13:39:27.721Z,14.90
2023-04-15T13:41:56.528Z,14.90
2023-04-15T13:44:24.564Z,14.90
2023-04-15T13:46:53.248Z,14.80
2023-04-15T13:49:21.454Z,15.10
2023-04-15T13:51:49.316Z,15.30
2023-04-15T13:54:17.395Z,15.80
2023-04-15T13:56:45.403Z,16.30
2023-04-15T13:59:14.152Z,16.40
2023-04-15T14:01:42.256Z,16.30
2023-04-15T14:04:10.755Z,16.10
2023-04-15T14:06:38.978Z,15.90
2023-04-15T14:09:07.410Z,15.90
2023-04-15T14:11:37.077Z,16.30
2023-04-15T14:14:06.186Z,16.80
2023-04-15T14:16:35.083Z,16.90
2023-04-15T14:19:03.835Z,16.90
2023-04-15T14:21:33.139Z,16.80
2023-04-15T14:24:01.326Z,16.80
2023-04-15T14:26:29.516Z,16.80
2023-04-15T14:28:57.548Z,16.50
2023-04-15T14:31:25.802Z,16.30
2023-04-15T14:33:53.762Z,16.20
2023-04-15T14:36:21.670Z,16.20
2023-04-15T14:38:49.783Z,16.20
2023-04-15T14:41:17.704Z,16.10
2023-04-15T14:43:45.910Z,16.10
2023-04-15T14:46:14.867Z,16.20
2023-04-15T14:48:43.952Z,16.60
2023-04-15T14:51:12.059Z,16.60
2023-04-15T14:53:40.428Z,16.60
2023-04-15T14:56:08.356Z,16.60
2023-04-15T14:58:36.941Z,16.70
2023-04-15T15:01:05.385Z,16.70
2023-04-15T15:03:34.292Z,16.50
2023-04-15T15:06:02.393Z,16.40
2023-04-15T15:08:30.509Z,16.30
2023-04-15T15:10:58.484Z,16.30
2023-04-15T15:13:26.598Z,16.30
2023-04-15T15:15:54.530Z,16.40
2023-04-15T15:18:22.670Z,16.50
2023-04-15T15:20:50.630Z,16.70
2023-04-15T15:23:19.089Z,16.80
2023-04-15T15:25:48.014Z,16.80
2023-04-15T15:28:16.423Z,16.70
2023-04-15T15:30:44.364Z,16.70
2023-04-15T15:33:12.661Z,16.70
2023-04-15T15:35:41.534Z,16.70
2023-04-15T15:38:11.615Z,16.80
2023-04-15T15:40:39.928Z,16.90
2023-04-15T15:43:07.933Z,17.00
2023-04-15T15:45:36.707Z,17.20
2023-04-15T15:48:05.975Z,17.50
2023-04-15T15:50:35.297Z,17.50
2023-04-15T15:53:03.339Z,17.30
2023-04-15T15:55:31.627Z,17.00
2023-04-15T15:58:00.135Z,16.80
2023-04-15T16:00:28.592Z,16.90
2023-04-15T16:05:29.260Z,17.20
2023-04-15T16:07:57.251Z,17.20
2023-04-15T16:10:25.511Z,17.20
2023-04-15T16:12:53.605Z,17.10
2023-04-15T16:15:22.996Z,17.00
2023-04-15T16:17:50.946Z,17.00
2023-04-15T16:20:19.103Z,16.90
2023-04-15T16:22:46.866Z,16.90
2023-04-15T16:25:14.972Z,16.80
2023-04-15T16:27:57.107Z,16.80
2023-04-15T16:30:27.442Z,16.70
2023-04-15T16:32:55.682Z,16.60
2023-04-15T16:35:23.847Z,16.60
2023-04-15T16:37:51.671Z,16.60
2023-04-15T16:40:19.874Z,16.60
2023-04-15T16:42:47.718Z,16.60
2023-04-15T16:45:16.518Z,16.60
2023-04-15T16:47:44.959Z,16.60
2023-04-15T16:50:13.309Z,16.40
2023-04-15T16:52:41.287Z,16.40
2023-04-15T16:55:09.632Z,16.20
2023-04-15T16:57:50.703Z,16.10
2023-04-15T17:00:26.032Z,16.00
2023-04-15T17:02:55.717Z,15.90
2023-04-15T17:05:24.017Z,15.90
2023-04-15T17:07:52.153Z,15.80
2023-04-15T17:10:20.243Z,15.80
2023-04-15T17:12:48.562Z,15.80
2023-04-15T17:15:16.733Z,15.80
2023-04-15T17:17:44.844Z,15.70
2023-04-15T17:20:13.074Z,15.70
2023-04-15T17:22:41.169Z,15.60
2023-04-15T17:25:09.543Z,15.60
2023-04-15T17:27:39.342Z,15.60
2023-04-15T17:30:08.735Z,15.50
2023-04-15T17:32:37.698Z,15.40
2023-04-15T17:35:06.873Z,15.40
2023-04-15T17:37:35.225Z,15.30
2023-04-15T17:40:05.264Z,15.30
2023-04-15T17:42:35.102Z,15.30
2023-04-15T17:45:03.155Z,15.20
2023-04-15T17:47:31.484Z,15.10
2023-04-15T17:49:59.449Z,15.00
2023-04-15T17:52:27.521Z,15.00
2023-04-15T17:54:56.484Z,14.90
2023-04-15T17:57:25.904Z,14.80
2023-04-15T17:59:54.508Z,14.80
2023-04-15T18:02:22.888Z,14.80
2023-04-15T18:04:51.374Z,14.80
2023-04-15T18:07:19.668Z,14.70
2023-04-15T18:09:47.915Z,14.70
2023-04-15T18:12:15.942Z,14.60
2023-04-15T18:14:44.098Z,14.50
2023-04-15T18:17:14.772Z,14.50
2023-04-15T18:19:44.097Z,14.40
2023-04-15T18:22:12.430Z,14.40
2023-04-15T18:24:40.775Z,14.40
2023-04-15T18:27:08.860Z,14.30
2023-04-15T18:29:37.025Z,14.30
2023-04-15T18:32:05.021Z,14.30
2023-04-15T18:34:33.251Z,14.20
2023-04-15T18:37:01.742Z,14.20
2023-04-15T18:39:29.848Z,14.10
2023-04-15T18:42:00.871Z,14.00
2023-04-15T18:44:29.137Z,14.00
2023-04-15T18:46:57.007Z,14.00
2023-04-15T18:49:26.366Z,14.00
2023-04-15T18:51:54.612Z,13.90
2023-04-15T18:54:23.245Z,13.90
2023-04-15T18:56:52.286Z,13.80
2023-04-15T18:59:28.378Z,13.80
2023-04-15T19:01:59.137Z,13.80
2023-04-15T19:04:29.573Z,13.80
2023-04-15T19:06:59.404Z,13.80
2023-04-15T19:09:28.733Z,13.70
2023-04-15T19:11:57.162Z,13.70
2023-04-15T19:14:25.424Z,13.70
2023-04-15T19:16:53.565Z,13.70
2023-04-15T19:19:21.878Z,13.70
2023-04-15T19:21:50.541Z,13.70
2023-04-15T19:24:19.334Z,13.60
2023-04-15T19:26:51.259Z,13.60
2023-04-15T19:29:19.527Z,13.60
2023-04-15T19:31:47.513Z,13.60
2023-04-15T19:34:15.751Z,13.60
2023-04-15T19:36:43.888Z,13.60
2023-04-15T19:39:12.366Z,13.50
2023-04-15T19:41:40.520Z,13.50
2023-04-15T19:44:08.827Z,13.50
2023-04-15T19:46:37.090Z,13.50
2023-04-15T19:49:05.752Z,13.50
2023-04-15T19:51:34.101Z,13.50
2023-04-15T19:54:02.126Z,13.50
2023-04-15T19:56:31.663Z,13.50
2023-04-15T19:59:02.609Z,13.40
2023-04-15T20:01:30.920Z,13.40
2023-04-15T20:03:59.559Z,13.40
2023-04-15T20:06:30.783Z,13.40
2023-04-15T20:08:59.109Z,13.30
2023-04-15T20:12:05.039Z,13.30
2023-04-15T20:14:20.951Z,13.30
2023-04-15T20:16:49.269Z,13.30
2023-04-15T20:19:17.053Z,13.30
2023-04-15T20:21:46.047Z,13.20
2023-04-15T20:24:14.118Z,13.20
2023-04-15T20:26:42.462Z,13.20
2023-04-15T20:29:10.499Z,13.10
2023-04-15T20:31:38.936Z,13.10
2023-04-15T20:34:07.182Z,13.10
2023-04-15T20:36:36.391Z,13.00
2023-04-15T20:39:04.425Z,12.90
2023-04-15T20:41:32.684Z,12.90
2023-04-15T20:44:00.732Z,12.90
2023-04-15T20:46:29.144Z,12.80
2023-04-15T20:48:57.368Z,12.80
2023-04-15T20:51:27.632Z,12.70
2023-04-15T20:53:55.999Z,12.70
2023-04-15T20:56:24.056Z,12.60
2023-04-15T20:58:52.427Z,12.60
2023-04-15T21:01:20.534Z,12.60
2023-04-15T21:03:48.793Z,12.50
2023-04-15T21:06:16.982Z,12.50
2023-04-15T21:08:45.332Z,12.60
2023-04-15T21:11:18.883Z,12.60
2023-04-15T21:13:57.121Z,12.60
2023-04-15T21:16:25.301Z,12.60
2023-04-15T21:18:53.658Z,12.60
2023-04-15T21:21:21.499Z,12.60
2023-04-15T21:23:49.520Z,12.60
2023-04-15T21:26:19.066Z,12.70
2023-04-15T21:28:47.143Z,12.70
2023-04-15T21:31:14.986Z,12.70
2023-04-15T21:33:43.151Z,12.60
2023-04-15T21:36:11.297Z,12.60
2023-04-15T21:38:39.457Z,12.60
2023-04-15T21:41:10.004Z,12.60
2023-04-15T21:43:38.477Z,12.60
2023-04-15T21:46:22.223Z,12.50
2023-04-15T21:48:56.596Z,12.50
2023-04-15T21:51:24.913Z,12.40
2023-04-15T21:53:53.729Z,12.30
2023-04-15T21:56:23.722Z,12.30
2023-04-15T21:58:57.992Z,12.30
2023-04-15T22:01:27.047Z,12.30
2023-04-15T22:03:55.039Z,12.20
2023-04-15T22:06:23.152Z,12.20
2023-04-15T22:09:11.302Z,12.10
2023-04-15T22:11:39.232Z,12.10
2023-04-15T22:14:07.189Z,11.90
2023-04-15T22:16:35.360Z,11.90
2023-04-15T22:19:03.133Z,11.90
2023-04-15T22:21:31.076Z,11.90
2023-04-15T22:24:32.559Z,11.90
2023-04-15T22:26:46.608Z,12.00
2023-04-15T22:29:14.215Z,12.00
2023-04-15T22:31:42.272Z,11.90
2023-04-15T22:34:10.414Z,12.00
2023-04-15T22:36:38.629Z,12.00
2023-04-15T22:39:06.778Z,12.00
2023-04-15T22:41:34.843Z,12.00
2023-04-15T22:44:02.651Z,12.00
2023-04-15T22:46:30.642Z,12.00
2023-04-15T22:48:58.633Z,12.10
2023-04-15T22:51:29.748Z,12.00
2023-04-15T22:53:58.894Z,12.00
2023-04-15T22:56:26.958Z,12.00
2023-04-15T22:58:54.876Z,12.00
2023-04-15T23:01:22.938Z,12.00
2023-04-15T23:03:55.797Z,12.10
2023-04-15T23:06:25.910Z,12.10
2023-04-15T23:08:54.283Z,12.00
2023-04-15T23:11:22.501Z,12.00
2023-04-15T23:13:51.349Z,12.00
2023-04-15T23:16:19.200Z,12.00
2023-04-15T23:18:47.115Z,12.00
2023-04-15T23:21:15.077Z,12.00
2023-04-15T23:23:42.883Z,12.00
2023-04-15T23:26:10.610Z,12.00
2023-04-15T23:28:38.396Z,12.00
2023-04-15T23:31:07.541Z,12.00
2023-04-15T23:33:35.339Z,12.00
2023-04-15T23:36:03.296Z,12.00
2023-04-15T23:38:31.155Z,12.00
2023-04-15T23:40:59.582Z,11.90
2023-04-15T23:43:27.661Z,11.90
2023-04-15T23:45:55.505Z,11.80
2023-04-15T23:48:24.064Z,11.60
2023-04-15T23:50:51.996Z,11.60
2023-04-15T23:53:19.787Z,11.60
2023-04-15T23:55:49.084Z,11.70
2023-04-15T23:58:17.142Z,11.60
